Time;durP1;ratioP1;P1;durP2;ratioP2;P2;SDS_P1;SDS_P2;PMS_P1;PMS_P2;Temp;Humidity;BMP_temperature;BMP_pressure;BME280_temperature;BME280_humidity;BME280_pressure;Samples;Min_cycle;Max_cycle;Signal;HPM_P1;HPM_P2
2022/09/13 00:00:05;;;;;;;28.80;16.10;;;16.00;99.90;;;;;;5084868;28;20043;-63
2022/09/13 00:02:31;;;;;;;24.23;14.95;;;15.90;99.90;;;;;;5084046;28;20087;-63
2022/09/13 00:04:57;;;;;;;23.17;14.68;;;15.90;99.90;;;;;;5084027;28;20051;-63
2022/09/13 00:07:22;;;;;;;23.52;13.93;;;16.10;99.90;;;;;;5084569;28;20032;-62
2022/09/13 00:09:48;;;;;;;25.30;13.70;;;16.00;99.90;;;;;;5085375;28;20125;-62
2022/09/13 00:12:14;;;;;;;22.75;12.77;;;16.00;99.90;;;;;;5086315;28;20084;-62
2022/09/13 00:14:40;;;;;;;26.13;13.80;;;15.80;99.90;;;;;;5085219;28;20411;-62
2022/09/13 00:17:06;;;;;;;23.73;13.70;;;16.10;99.90;;;;;;5090475;28;20062;-62
2022/09/13 00:19:31;;;;;;;29.02;15.80;;;15.80;99.90;;;;;;5088412;28;20040;-62
2022/09/13 00:21:57;;;;;;;25.10;15.82;;;16.00;99.90;;;;;;5087170;28;20032;-62
2022/09/13 00:24:22;;;;;;;32.05;16.38;;;16.10;99.90;;;;;;5088628;28;20449;-63
2022/09/13 00:26:48;;;;;;;26.63;16.15;;;15.80;99.90;;;;;;5088159;28;20043;-62
2022/09/13 00:29:14;;;;;;;25.50;15.63;;;16.10;99.90;;;;;;5087333;28;20080;-62
2022/09/13 00:31:39;;;;;;;29.60;16.33;;;15.90;99.90;;;;;;5091800;28;20059;-63
2022/09/13 00:34:05;;;;;;;31.25;16.42;;;15.90;99.90;;;;;;5088204;28;20031;-62
2022/09/13 00:36:30;;;;;;;24.17;15.90;;;16.10;99.90;;;;;;5091588;28;20044;-62
2022/09/13 00:38:56;;;;;;;30.70;17.60;;;16.00;99.90;;;;;;5089271;28;20047;-62
2022/09/13 00:41:22;;;;;;;34.40;18.80;;;16.20;99.90;;;;;;5086710;28;20479;-62
2022/09/13 00:43:57;;;;;;;29.35;18.83;;;16.20;99.90;;;;;;5088474;28;20101;-62
2022/09/13 00:46:47;;;;;;;35.97;20.60;;;16.10;99.90;;;;;;5084873;28;20044;-62
2022/09/13 00:49:19;;;;;;;44.60;22.40;;;16.00;99.90;;;;;;5087311;28;20146;-63
2022/09/13 00:51:51;;;;;;;40.67;23.45;;;16.10;99.90;;;;;;5087525;28;20097;-63
2022/09/13 00:54:20;;;;;;;46.03;22.13;;;16.00;99.90;;;;;;5085995;28;20561;-63
2022/09/13 00:56:53;;;;;;;42.35;22.80;;;16.10;99.90;;;;;;5086673;28;20467;-62
2022/09/13 00:59:31;;;;;;;42.45;22.77;;;16.20;99.90;;;;;;5089412;28;20043;-63
2022/09/13 01:01:59;;;;;;;40.72;22.27;;;16.20;99.90;;;;;;5086653;28;20044;-63
2022/09/13 01:04:27;;;;;;;40.40;20.92;;;16.20;99.90;;;;;;5082741;28;20063;-62
2022/09/13 01:06:57;;;;;;;40.45;22.25;;;16.10;99.90;;;;;;5088111;28;20971;-63
2022/09/13 01:09:24;;;;;;;40.47;21.38;;;16.30;99.90;;;;;;5086287;28;20032;-63
2022/09/13 01:12:06;;;;;;;36.88;20.20;;;16.20;99.90;;;;;;5086852;28;20040;-62
2022/09/13 01:14:33;;;;;;;34.17;18.88;;;16.40;99.90;;;;;;5085477;28;20036;-63
2022/09/13 01:16:59;;;;;;;34.05;19.58;;;16.40;99.90;;;;;;5088452;28;20081;-62
2022/09/13 01:19:26;;;;;;;51.47;19.77;;;16.20;99.90;;;;;;5088603;28;20048;-63
2022/09/13 01:22:06;;;;;;;39.15;19.35;;;16.30;99.90;;;;;;5087702;28;20036;-63
2022/09/13 01:24:55;;;;;;;30.80;18.27;;;16.30;99.90;;;;;;5081804;28;20039;-63
2022/09/13 01:27:43;;;;;;;33.08;17.45;;;16.30;99.90;;;;;;5086655;28;20491;-63
2022/09/13 01:30:13;;;;;;;34.95;18.33;;;16.20;99.90;;;;;;5089712;28;20043;-63
2022/09/13 01:33:16;;;;;;;38.22;18.42;;;16.30;99.90;;;;;;5085361;28;20044;-63
2022/09/13 01:36:01;;;;;;;28.98;16.02;;;16.10;99.90;;;;;;5086190;28;20073;-62
2022/09/13 01:39:01;;;;;;;34.13;17.52;;;16.10;99.90;;;;;;5085599;28;20548;-62
2022/09/13 01:41:41;;;;;;;31.67;16.95;;;16.10;99.90;;;;;;5086723;28;20047;-63
2022/09/13 01:44:40;;;;;;;29.55;17.50;;;16.10;99.90;;;;;;5078907;28;20484;-63
2022/09/13 01:47:12;;;;;;;30.08;17.55;;;16.10;99.90;;;;;;5090712;28;20035;-63
2022/09/13 01:49:56;;;;;;;48.05;20.27;;;16.10;99.90;;;;;;5089955;28;20040;-62
2022/09/13 01:52:30;;;;;;;45.80;20.38;;;16.10;99.90;;;;;;5088023;28;20043;-62
2022/09/13 01:55:15;;;;;;;36.42;19.65;;;16.10;99.90;;;;;;5086134;28;20044;-62
2022/09/13 01:57:52;;;;;;;51.38;22.08;;;16.30;99.90;;;;;;5085718;28;20040;-62
2022/09/13 02:00:18;;;;;;;42.88;20.58;;;16.10;99.90;;;;;;5086242;28;20039;-62
2022/09/13 02:03:22;;;;;;;41.42;19.40;;;16.20;99.90;;;;;;5085307;28;20083;-62
2022/09/13 02:06:14;;;;;;;46.63;22.65;;;16.20;99.90;;;;;;5042755;28;20365;-62
2022/09/13 02:08:50;;;;;;;40.53;21.55;;;16.30;99.90;;;;;;5045111;28;20045;-63
2022/09/13 02:11:19;;;;;;;43.47;20.95;;;16.10;99.90;;;;;;5074821;28;20063;-63
2022/09/13 02:14:06;;;;;;;49.53;23.88;;;16.20;99.90;;;;;;5088315;28;20867;-62
2022/09/13 02:16:44;;;;;;;43.95;22.10;;;16.10;99.90;;;;;;5086558;28;20036;-63
2022/09/13 02:19:25;;;;;;;43.55;22.95;;;16.10;99.90;;;;;;5082170;28;20174;-62
2022/09/13 02:21:53;;;;;;;;;;;16.20;99.90;;;;;;5088682;28;20050;-62
2022/09/13 02:24:25;;;;;;;55.97;24.30;;;16.30;99.90;;;;;;5085464;28;20010;-62
2022/09/13 02:26:54;;;;;;;41.33;22.92;;;16.30;99.90;;;;;;5087834;28;20098;-61
2022/09/13 02:29:23;;;;;;;44.05;22.60;;;16.10;99.90;;;;;;5091474;28;20040;-63
2022/09/13 02:32:09;;;;;;;53.42;23.92;;;16.20;99.90;;;;;;5083478;28;20469;-62
2022/09/13 02:34:44;;;;;;;40.85;22.17;;;16.10;99.90;;;;;;5089910;28;20437;-62
2022/09/13 02:37:11;;;;;;;61.63;26.50;;;16.20;99.90;;;;;;5082627;28;20501;-62
2022/09/13 02:39:46;;;;;;;62.28;25.52;;;16.10;99.90;;;;;;5088822;28;20123;-62
2022/09/13 02:42:18;;;;;;;48.67;24.90;;;16.20;99.90;;;;;;5090792;28;20039;-62
2022/09/13 02:44:58;;;;;;;48.30;24.88;;;16.20;99.90;;;;;;5088811;28;20075;-62
2022/09/13 02:47:43;;;;;;;56.33;26.50;;;16.20;99.90;;;;;;5090878;28;20086;-63
2022/09/13 02:50:42;;;;;;;50.08;24.88;;;16.30;99.90;;;;;;5079982;28;20047;-62
2022/09/13 02:53:39;;;;;;;66.25;27.17;;;16.30;99.90;;;;;;5085735;28;20174;-61
2022/09/13 02:56:38;;;;;;;63.13;27.58;;;16.10;99.90;;;;;;5086722;28;20039;-61
2022/09/13 02:59:16;;;;;;;65.53;27.98;;;16.30;99.90;;;;;;5085852;28;20075;-62
2022/09/13 03:02:11;;;;;;;63.13;27.50;;;16.10;99.90;;;;;;5085487;28;20039;-61
2022/09/13 03:04:37;;;;;;;52.47;25.90;;;16.20;99.90;;;;;;5082477;28;20044;-61
2022/09/13 03:07:06;;;;;;;54.88;27.20;;;16.10;99.90;;;;;;5085722;28;20036;-62
2022/09/13 03:09:32;;;;;;;66.65;29.98;;;16.10;99.90;;;;;;5090090;28;20036;-62
2022/09/13 03:12:23;;;;;;;60.08;28.15;;;16.10;99.90;;;;;;5089206;28;20033;-62
2022/09/13 03:15:09;;;;;;;59.58;26.58;;;16.20;99.90;;;;;;5087651;28;20126;-62
2022/09/13 03:17:44;;;;;;;60.83;28.13;;;16.10;99.90;;;;;;5069905;28;20117;-61
2022/09/13 03:20:39;;;;;;;76.57;29.52;;;16.30;99.90;;;;;;5089397;28;20055;-62
2022/09/13 03:23:27;;;;;;;61.10;29.17;;;16.20;99.90;;;;;;5081127;28;20044;-61
2022/09/13 03:25:53;;;;;;;56.53;27.13;;;16.30;99.90;;;;;;5090076;28;20032;-61
2022/09/13 03:28:41;;;;;;;55.92;28.02;;;16.20;99.90;;;;;;5090036;28;20631;-62
2022/09/13 03:31:17;;;;;;;53.92;27.25;;;16.10;99.90;;;;;;5090031;28;20040;-61
2022/09/13 03:33:55;;;;;;;59.17;27.05;;;16.10;99.90;;;;;;5087846;28;20121;-61
2022/09/13 03:36:33;;;;;;;55.53;27.60;;;16.30;99.90;;;;;;5090570;28;20067;-63
2022/09/13 03:39:12;;;;;;;51.55;25.35;;;16.20;99.90;;;;;;5090145;28;20134;-61
2022/09/13 03:41:49;;;;;;;50.95;24.80;;;16.20;99.90;;;;;;5090438;28;20040;-61
2022/09/13 03:44:19;;;;;;;53.67;26.42;;;16.20;99.90;;;;;;5089542;28;20085;-62
2022/09/13 03:46:48;;;;;;;54.92;26.73;;;16.20;99.90;;;;;;5089299;28;20410;-62
2022/09/13 03:49:17;;;;;;;51.33;26.08;;;16.20;99.90;;;;;;5087697;28;20130;-61
2022/09/13 03:51:45;;;;;;;44.92;24.95;;;16.10;99.90;;;;;;5087389;28;20042;-61
2022/09/13 03:54:18;;;;;;;62.45;27.75;;;16.20;99.90;;;;;;5085746;28;20046;-61
2022/09/13 03:57:08;;;;;;;58.33;28.10;;;16.30;99.90;;;;;;5089864;28;20083;-61
2022/09/13 03:59:38;;;;;;;59.20;26.33;;;16.30;99.90;;;;;;5088753;28;20040;-62
2022/09/13 04:02:10;;;;;;;51.80;26.57;;;16.20;99.90;;;;;;5085908;28;20316;-60
2022/09/13 04:04:42;;;;;;;67.30;28.02;;;16.30;99.90;;;;;;5089138;28;20046;-61
2022/09/13 04:07:10;;;;;;;49.25;25.95;;;16.40;99.90;;;;;;5086253;28;20064;-62
2022/09/13 04:09:36;;;;;;;52.78;25.33;;;16.40;99.90;;;;;;5078534;28;20529;-61
2022/09/13 04:12:02;;;;;;;50.88;25.55;;;16.50;99.90;;;;;;5089336;28;20070;-61
2022/09/13 04:14:27;;;;;;;48.92;25.67;;;16.50;99.90;;;;;;5088425;28;20079;-61
2022/09/13 04:16:54;;;;;;;46.47;24.20;;;16.50;99.90;;;;;;5084076;28;20040;-61
2022/09/13 04:19:20;;;;;;;49.05;23.65;;;16.40;99.90;;;;;;5086860;28;20036;-62
2022/09/13 04:21:48;;;;;;;64.47;26.33;;;16.60;99.90;;;;;;5085428;28;20061;-61
2022/09/13 04:24:13;;;;;;;44.78;22.70;;;16.60;99.90;;;;;;5086345;28;20040;-62
2022/09/13 04:26:39;;;;;;;56.42;24.33;;;16.50;99.90;;;;;;5089242;28;20040;-62
2022/09/13 04:29:05;;;;;;;49.15;22.33;;;16.60;99.90;;;;;;5087750;28;20036;-61
2022/09/13 04:31:30;;;;;;;37.72;20.77;;;16.70;99.90;;;;;;5089667;28;20473;-62
2022/09/13 04:33:57;;;;;;;44.58;22.67;;;16.50;99.90;;;;;;5086268;28;20483;-61
2022/09/13 04:36:22;;;;;;;40.50;22.10;;;16.80;99.90;;;;;;5085644;28;20475;-62
2022/09/13 04:38:48;;;;;;;47.72;22.15;;;16.80;99.90;;;;;;5087060;28;20035;-62
2022/09/13 04:41:15;;;;;;;38.92;20.88;;;16.60;99.90;;;;;;5086533;28;20039;-61
2022/09/13 04:43:40;;;;;;;36.88;20.95;;;16.70;99.90;;;;;;5089180;28;20083;-62
2022/09/13 04:46:06;;;;;;;46.40;21.35;;;16.70;99.90;;;;;;5084827;28;20090;-63
2022/09/13 04:48:31;;;;;;;41.38;20.83;;;16.60;99.90;;;;;;5089226;28;20388;-62
2022/09/13 04:51:03;;;;;;;40.22;20.60;;;16.80;99.90;;;;;;5085928;28;20122;-61
2022/09/13 04:53:29;;;;;;;42.22;21.25;;;16.70;99.90;;;;;;5086856;28;20114;-62
2022/09/13 04:56:03;;;;;;;39.15;20.50;;;16.80;99.90;;;;;;5090594;28;20344;-62
2022/09/13 04:58:29;;;;;;;46.33;21.77;;;16.80;99.90;;;;;;5086528;28;20047;-63
2022/09/13 05:01:04;;;;;;;42.13;20.85;;;16.70;99.90;;;;;;5086700;28;20044;-62
2022/09/13 05:03:31;;;;;;;51.72;23.13;;;16.80;99.90;;;;;;5080682;28;20426;-61
2022/09/13 05:06:05;;;;;;;37.05;19.58;;;16.80;99.90;;;;;;5081732;28;20032;-62
2022/09/13 05:08:32;;;;;;;43.28;21.35;;;16.70;99.90;;;;;;5087283;28;20122;-62
2022/09/13 05:10:58;;;;;;;44.42;19.33;;;16.80;99.90;;;;;;5084674;28;20402;-63
2022/09/13 05:13:25;;;;;;;36.00;18.77;;;16.80;99.90;;;;;;5092055;28;20593;-63
2022/09/13 05:15:58;;;;;;;34.88;17.58;;;16.70;99.90;;;;;;5084600;28;20395;-61
2022/09/13 05:18:32;;;;;;;32.40;17.13;;;16.60;99.90;;;;;;5086976;28;20032;-62
2022/09/13 05:20:59;;;;;;;37.83;18.00;;;16.80;99.90;;;;;;5085174;28;20089;-61
2022/09/13 05:23:25;;;;;;;40.50;18.20;;;16.70;99.90;;;;;;5079232;28;20093;-62
2022/09/13 05:25:53;;;;;;;32.78;15.90;;;16.80;99.90;;;;;;5085700;28;20036;-62
2022/09/13 05:28:19;;;;;;;33.60;16.48;;;16.80;99.90;;;;;;5081984;28;20044;-61
2022/09/13 05:31:00;;;;;;;24.70;14.63;;;16.70;99.90;;;;;;5086734;28;20040;-62
2022/09/13 05:33:28;;;;;;;29.73;14.63;;;16.80;99.90;;;;;;5086268;28;20068;-62
2022/09/13 05:35:53;;;;;;;28.63;14.10;;;16.70;99.90;;;;;;5086669;28;20051;-62
2022/09/13 05:38:20;;;;;;;27.00;14.98;;;16.80;99.90;;;;;;5087707;28;20040;-61
2022/09/13 05:40:45;;;;;;;24.42;13.85;;;16.80;99.90;;;;;;5087510;28;20421;-63
2022/09/13 05:43:11;;;;;;;28.45;14.25;;;16.60;99.90;;;;;;5086766;28;20138;-61
2022/09/13 05:45:37;;;;;;;21.15;12.50;;;16.60;99.90;;;;;;5085996;28;20367;-62
2022/09/13 05:48:03;;;;;;;25.92;13.57;;;16.70;99.90;;;;;;5085400;28;20073;-61
2022/09/13 05:50:29;;;;;;;24.45;13.02;;;16.70;99.90;;;;;;5088066;28;20044;-61
2022/09/13 05:52:55;;;;;;;24.50;13.45;;;16.70;99.90;;;;;;5086251;28;20371;-62
2022/09/13 05:55:22;;;;;;;21.98;11.93;;;16.70;99.90;;;;;;5088312;28;20421;-61
2022/09/13 05:57:48;;;;;;;22.83;13.38;;;16.80;99.90;;;;;;5085702;28;20047;-62
2022/09/13 06:00:14;;;;;;;20.88;12.95;;;16.80;99.90;;;;;;5087966;28;20367;-63
2022/09/13 06:02:40;;;;;;;26.33;13.23;;;16.80;99.90;;;;;;5080932;28;20056;-61
2022/09/13 06:05:07;;;;;;;21.13;11.63;;;16.80;99.90;;;;;;5088878;28;20380;-62
2022/09/13 06:07:32;;;;;;;24.80;11.25;;;16.70;99.90;;;;;;5086414;28;20042;-62
2022/09/13 06:09:58;;;;;;;22.33;11.20;;;16.80;99.90;;;;;;5091886;28;20028;-61
2022/09/13 06:12:24;;;;;;;18.02;10.50;;;16.90;99.90;;;;;;5091366;28;20040;-62
2022/09/13 06:14:49;;;;;;;16.80;10.13;;;16.80;99.90;;;;;;5093705;28;20027;-63
2022/09/13 06:17:15;;;;;;;17.77;9.75;;;16.80;99.90;;;;;;5092479;28;20120;-62
2022/09/13 06:19:40;;;;;;;14.52;7.95;;;16.80;99.90;;;;;;5090089;28;20611;-61
2022/09/13 06:22:06;;;;;;;14.43;7.72;;;16.90;99.90;;;;;;5090916;28;20078;-62
2022/09/13 06:24:31;;;;;;;13.85;7.72;;;16.80;99.90;;;;;;5090330;28;20040;-62
2022/09/13 06:26:57;;;;;;;9.40;6.32;;;16.90;99.90;;;;;;5089397;28;20044;-62
2022/09/13 06:29:23;;;;;;;12.45;6.32;;;16.80;99.90;;;;;;5090513;28;20064;-62
2022/09/13 06:31:48;;;;;;;9.45;5.30;;;16.70;99.90;;;;;;5090191;28;20037;-62
2022/09/13 06:34:15;;;;;;;10.05;5.05;;;16.70;99.90;;;;;;5090370;28;20502;-62
2022/09/13 06:36:41;;;;;;;9.77;5.50;;;16.70;99.90;;;;;;5089606;28;20502;-63
2022/09/13 06:39:06;;;;;;;9.38;4.72;;;16.70;99.90;;;;;;5090118;28;20028;-63
2022/09/13 06:41:33;;;;;;;9.35;4.68;;;16.70;99.90;;;;;;5089179;28;20032;-61
2022/09/13 06:44:00;;;;;;;6.93;4.30;;;16.80;99.90;;;;;;5090228;28;20121;-63
2022/09/13 06:46:30;;;;;;;7.45;4.28;;;16.70;99.90;;;;;;5090357;28;20032;-62
2022/09/13 06:49:01;;;;;;;4.95;3.40;;;16.60;99.90;;;;;;5091060;28;20040;-62
2022/09/13 06:51:28;;;;;;;9.88;3.70;;;16.60;99.90;;;;;;5082598;28;20375;-62
2022/09/13 06:53:57;;;;;;;6.90;3.50;;;16.70;99.90;;;;;;5082338;28;20048;-64
2022/09/13 06:56:28;;;;;;;8.43;3.42;;;16.80;99.90;;;;;;5082561;28;20082;-61
2022/09/13 06:58:58;;;;;;;6.47;4.07;;;16.70;99.90;;;;;;5083149;28;20446;-62
2022/09/13 07:01:30;;;;;;;8.63;3.88;;;16.80;99.90;;;;;;5079316;28;20040;-63
2022/09/13 07:04:01;;;;;;;8.30;3.80;;;16.70;99.90;;;;;;5087875;28;20048;-62
2022/09/13 07:06:29;;;;;;;6.07;3.90;;;16.80;99.90;;;;;;5087652;28;20067;-62
2022/09/13 07:08:57;;;;;;;8.55;3.80;;;16.80;99.90;;;;;;5075408;28;20054;-63
2022/09/13 07:11:25;;;;;;;6.15;3.60;;;16.80;99.90;;;;;;5080740;28;20120;-62
2022/09/13 07:13:57;;;;;;;9.13;3.40;;;16.90;99.90;;;;;;5082991;28;20043;-62
2022/09/13 07:16:25;;;;;;;8.18;3.47;;;16.80;99.90;;;;;;5090737;28;20063;-61
2022/09/13 07:19:05;;;;;;;6.63;3.25;;;16.90;99.90;;;;;;5082104;28;20101;-63
2022/09/13 07:21:32;;;;;;;8.10;3.60;;;17.00;99.90;;;;;;5091507;28;20036;-62
2022/09/13 07:23:58;;;;;;;6.40;3.05;;;16.90;99.90;;;;;;5088397;28;20119;-63
2022/09/13 07:26:26;;;;;;;9.35;3.42;;;17.10;99.90;;;;;;5083113;28;20657;-61
2022/09/13 07:28:53;;;;;;;6.68;3.25;;;17.20;99.90;;;;;;5091061;28;20089;-62
2022/09/13 07:31:23;;;;;;;6.07;3.22;;;17.20;99.90;;;;;;5092730;28;20039;-61
2022/09/13 07:34:05;;;;;;;7.53;3.30;;;17.30;99.90;;;;;;5084448;28;20036;-62
2022/09/13 07:36:33;;;;;;;4.82;3.55;;;17.40;99.90;;;;;;5085238;28;20039;-62
2022/09/13 07:38:59;;;;;;;6.75;3.15;;;17.60;99.90;;;;;;5085344;28;20044;-63
2022/09/13 07:41:26;;;;;;;11.43;3.15;;;17.70;99.90;;;;;;5082382;28;20033;-62
2022/09/13 07:43:53;;;;;;;3.75;2.20;;;18.00;99.90;;;;;;5081731;28;20679;-61
2022/09/13 07:46:26;;;;;;;9.40;3.00;;;18.20;99.90;;;;;;5084849;28;20036;-62
2022/09/13 07:48:55;;;;;;;5.60;2.58;;;18.20;99.90;;;;;;5087188;28;20043;-63
2022/09/13 07:51:23;;;;;;;5.38;2.28;;;18.40;99.90;;;;;;5085646;28;20040;-62
2022/09/13 07:53:50;;;;;;;7.22;2.00;;;18.40;99.90;;;;;;5088833;28;20456;-61
2022/09/13 07:56:19;;;;;;;7.75;2.13;;;18.40;99.90;;;;;;5089665;28;20052;-61
2022/09/13 07:58:47;;;;;;;5.00;2.10;;;18.50;99.90;;;;;;5088932;28;20403;-62
2022/09/13 08:01:23;;;;;;;6.25;1.60;;;18.40;99.90;;;;;;5091023;28;20036;-61
2022/09/13 08:03:55;;;;;;;8.00;1.70;;;18.30;99.90;;;;;;5086094;28;21475;-62
2022/09/13 08:06:22;;;;;;;4.18;1.20;;;18.20;99.90;;;;;;5071944;28;20595;-61
2022/09/13 08:08:48;;;;;;;10.95;1.42;;;18.30;99.90;;;;;;5074740;28;20048;-61
2022/09/13 08:11:18;;;;;;;5.30;1.10;;;18.40;99.90;;;;;;5083843;28;20042;-63
2022/09/13 08:13:45;;;;;;;3.90;1.17;;;18.50;99.90;;;;;;5079695;28;20036;-61
2022/09/13 08:16:11;;;;;;;3.78;0.80;;;18.40;99.90;;;;;;5075195;28;20044;-61
2022/09/13 08:18:37;;;;;;;2.72;0.95;;;18.50;99.90;;;;;;5080608;28;20044;-61
2022/09/13 08:21:02;;;;;;;2.80;1.08;;;18.50;99.90;;;;;;5079551;28;20079;-61
2022/09/13 08:23:28;;;;;;;5.55;1.15;;;18.60;99.90;;;;;;5077439;28;20119;-61
2022/09/13 08:25:58;;;;;;;2.85;0.68;;;18.50;99.90;;;;;;5089209;28;20156;-62
2022/09/13 08:28:24;;;;;;;;;;;18.60;99.90;;;;;;5086496;28;20042;-63
2022/09/13 08:30:50;;;;;;;2.67;0.90;;;18.70;99.90;;;;;;5085380;28;20286;-62
2022/09/13 08:33:15;;;;;;;4.55;1.10;;;18.80;99.90;;;;;;5092175;28;20484;-61
2022/09/13 08:35:49;;;;;;;2.35;0.80;;;19.10;99.90;;;;;;5081351;28;20467;-63
2022/09/13 08:38:15;;;;;;;3.35;0.82;;;19.40;99.90;;;;;;5084942;28;20044;-61
2022/09/13 08:40:47;;;;;;;3.53;1.00;;;19.70;99.90;;;;;;5090237;28;20032;-62
2022/09/13 08:43:33;;;;;;;2.40;0.80;;;19.70;99.90;;;;;;5090003;28;20028;-62
2022/09/13 08:46:07;;;;;;;5.70;0.93;;;19.70;99.90;;;;;;5090481;28;20464;-62
2022/09/13 08:48:38;;;;;;;3.10;0.70;;;19.60;99.90;;;;;;5091947;28;20044;-63
2022/09/13 08:51:06;;;;;;;;;;;19.60;99.90;;;;;;5090623;28;20047;-62
2022/09/13 08:53:46;;;;;;;3.53;0.68;;;19.70;99.90;;;;;;5091724;28;19920;-62
2022/09/13 08:56:22;;;;;;;3.20;0.85;;;19.70;99.90;;;;;;5090354;28;20075;-62
2022/09/13 08:59:25;;;;;;;2.63;0.98;;;19.70;99.90;;;;;;5092437;28;20036;-62
2022/09/13 09:02:27;;;;;;;1.63;0.52;;;19.50;99.90;;;;;;5091978;28;20043;-62
2022/09/13 09:05:03;;;;;;;2.72;0.82;;;19.40;99.90;;;;;;5078268;28;20426;-62
2022/09/13 09:07:36;;;;;;;2.92;0.70;;;19.40;99.90;;;;;;5086145;28;20044;-63
2022/09/13 09:10:14;;;;;;;2.42;0.65;;;19.80;99.90;;;;;;5071788;28;20036;-63
2022/09/13 09:12:49;;;;;;;4.30;0.70;;;19.90;99.90;;;;;;5079056;28;20032;-62
2022/09/13 09:15:23;;;;;;;5.55;0.75;;;19.70;99.90;;;;;;5089950;28;20051;-62
2022/09/13 09:18:17;;;;;;;3.00;0.80;;;19.90;99.90;;;;;;5090104;28;20132;-61
2022/09/13 09:20:45;;;;;;;0.88;0.52;;;19.90;99.90;;;;;;5089846;28;20044;-62
2022/09/13 09:23:17;;;;;;;2.40;0.60;;;20.10;99.90;;;;;;5089581;28;20036;-62
2022/09/13 09:25:43;;;;;;;2.70;0.73;;;20.40;99.90;;;;;;5087415;28;20046;-62
2022/09/13 09:28:12;;;;;;;4.32;0.73;;;20.50;99.90;;;;;;5091723;28;20371;-62
2022/09/13 09:31:03;;;;;;;1.45;0.50;;;20.50;99.90;;;;;;5089543;28;20126;-62
2022/09/13 09:33:53;;;;;;;3.00;0.52;;;20.20;99.90;;;;;;5089210;28;20059;-63
2022/09/13 09:36:34;;;;;;;4.72;0.70;;;19.90;99.90;;;;;;5090664;28;20525;-62
2022/09/13 09:39:02;;;;;;;3.05;0.65;;;19.80;99.90;;;;;;5094392;28;20046;-62
2022/09/13 09:41:31;;;;;;;3.83;0.95;;;19.80;99.90;;;;;;5091647;28;20152;-62
2022/09/13 09:44:15;;;;;;;2.92;0.52;;;19.90;99.90;;;;;;5094281;28;20055;-62
2022/09/13 09:46:42;;;;;;;1.52;0.50;;;20.00;99.90;;;;;;5092072;28;20048;-62
2022/09/13 09:52:15;;;;;;;3.53;0.80;;;20.40;99.90;;;;;;5093760;28;20071;-62
2022/09/13 09:54:40;;;;;;;2.67;0.80;;;20.80;99.90;;;;;;5094806;28;20046;-62
2022/09/13 09:57:06;;;;;;;5.53;0.65;;;20.80;99.90;;;;;;5091554;28;20123;-63
2022/09/13 09:59:33;;;;;;;5.88;0.98;;;20.50;99.90;;;;;;5090454;28;20521;-62
2022/09/13 10:02:15;;;;;;;4.20;0.82;;;20.40;99.90;;;;;;5085806;28;20047;-62
2022/09/13 10:04:41;;;;;;;2.08;0.40;;;20.50;99.90;;;;;;5084539;28;20067;-63
2022/09/13 10:07:16;;;;;;;3.85;0.73;;;20.60;99.90;;;;;;5080535;28;20032;-63
2022/09/13 10:09:57;;;;;;;2.22;0.55;;;20.60;99.90;;;;;;5086665;28;20036;-62
2022/09/13 10:12:28;;;;;;;3.03;0.60;;;20.70;98.30;;;;;;5080719;28;20476;-63
2022/09/13 10:15:11;;;;;;;3.65;0.60;;;20.70;99.90;;;;;;5081856;28;20044;-63
2022/09/13 10:17:36;;;;;;;2.92;0.60;;;21.00;99.90;;;;;;5085480;28;20562;-63
2022/09/13 10:20:14;;;;;;;2.47;0.70;;;21.10;99.90;;;;;;5081694;28;20040;-62
2022/09/13 10:22:41;;;;;;;4.47;0.70;;;21.40;99.90;;;;;;5079365;28;20845;-63
2022/09/13 10:25:30;;;;;;;7.65;0.70;;;21.50;99.90;;;;;;5086780;28;20049;-63
2022/09/13 10:27:59;;;;;;;6.63;0.70;;;21.80;99.60;;;;;;5086758;28;20383;-64
2022/09/13 10:30:27;;;;;;;4.28;1.05;;;22.00;99.90;;;;;;5068321;28;20040;-64
2022/09/13 10:32:57;;;;;;;3.17;0.60;;;22.00;99.90;;;;;;5083824;28;20499;-64
2022/09/13 10:35:23;;;;;;;3.23;0.77;;;21.80;99.90;;;;;;5090505;28;20043;-63
2022/09/13 10:37:50;;;;;;;5.28;0.95;;;21.60;99.90;;;;;;5088676;28;20036;-63
2022/09/13 10:40:32;;;;;;;4.05;0.70;;;21.40;99.90;;;;;;5090867;28;20467;-63
2022/09/13 10:43:02;;;;;;;6.82;0.93;;;21.20;99.90;;;;;;5091418;28;20047;-62
2022/09/13 10:45:30;;;;;;;2.38;0.77;;;21.20;99.90;;;;;;5090358;28;20562;-62
2022/09/13 10:48:13;;;;;;;2.38;0.47;;;21.10;99.90;;;;;;5090752;28;20036;-63
2022/09/13 10:50:38;;;;;;;3.72;0.85;;;21.10;98.20;;;;;;5087759;28;20548;-62
2022/09/13 10:53:24;;;;;;;2.67;0.55;;;21.10;99.90;;;;;;5086461;28;20040;-63
2022/09/13 10:55:54;;;;;;;5.38;0.80;;;21.10;99.70;;;;;;5089347;28;20042;-63
2022/09/13 10:58:19;;;;;;;1.77;0.80;;;21.00;98.90;;;;;;5095013;28;20064;-62
2022/09/13 11:01:12;;;;;;;4.10;0.70;;;21.10;98.60;;;;;;5093319;28;20424;-62
2022/09/13 11:04:09;;;;;;;2.70;0.68;;;21.30;97.30;;;;;;5090867;28;20049;-63
2022/09/13 11:06:53;;;;;;;4.68;0.80;;;21.40;97.10;;;;;;5091108;28;20044;-63
2022/09/13 11:09:52;;;;;;;3.28;0.60;;;21.60;96.00;;;;;;5091205;28;20046;-62
2022/09/13 11:12:30;;;;;;;3.38;0.85;;;21.50;97.00;;;;;;5094018;28;20036;-63
2022/09/13 11:15:04;;;;;;;4.05;0.82;;;21.40;97.90;;;;;;5089029;28;20423;-63
2022/09/13 11:17:58;;;;;;;4.63;0.60;;;21.20;98.00;;;;;;5093578;28;20063;-62
2022/09/13 11:21:12;;;;;;;2.15;0.50;;;21.20;97.60;;;;;;5082644;28;20071;-63
2022/09/13 11:24:01;;;;;;;2.67;0.50;;;21.30;97.50;;;;;;5053590;28;20519;-62
2022/09/13 11:27:06;;;;;;;5.30;0.90;;;21.40;96.80;;;;;;5088805;28;20064;-63
2022/09/13 11:29:39;;;;;;;4.72;0.60;;;21.60;96.30;;;;;;5077421;28;20418;-62
2022/09/13 11:32:19;;;;;;;1.90;0.65;;;21.70;97.40;;;;;;5094224;28;20075;-62
2022/09/13 11:35:12;;;;;;;2.40;0.67;;;21.90;95.90;;;;;;5089713;28;20052;-63
2022/09/13 11:37:52;;;;;;;2.78;0.70;;;22.00;95.90;;;;;;5090510;28;20297;-63
2022/09/13 11:40:54;;;;;;;3.08;0.80;;;22.10;96.30;;;;;;5089957;28;20093;-62
2022/09/13 11:43:46;;;;;;;1.60;0.45;;;22.10;95.00;;;;;;5085197;28;20048;-63
2022/09/13 11:46:21;;;;;;;5.45;0.93;;;22.10;94.70;;;;;;5091581;28;20039;-63
2022/09/13 11:49:05;;;;;;;5.53;1.02;;;22.00;95.60;;;;;;5072737;28;20047;-63
2022/09/13 11:51:56;;;;;;;2.90;0.70;;;22.10;96.60;;;;;;5088062;28;20028;-62
2022/09/13 11:54:51;;;;;;;5.38;0.70;;;22.10;93.70;;;;;;5088099;28;20532;-62
2022/09/13 11:57:24;;;;;;;5.20;0.90;;;22.20;96.10;;;;;;5089731;28;20047;-62
2022/09/13 12:00:00;;;;;;;3.55;0.85;;;22.10;96.30;;;;;;5086145;28;20062;-62
2022/09/13 12:02:39;;;;;;;4.43;0.77;;;22.10;95.90;;;;;;5090429;28;20052;-62
2022/09/13 12:05:14;;;;;;;6.70;0.80;;;22.10;95.90;;;;;;5090394;28;20052;-62
2022/09/13 12:07:48;;;;;;;3.00;0.60;;;22.10;95.30;;;;;;5085595;28;20075;-63
2022/09/13 12:10:28;;;;;;;4.35;0.68;;;22.00;95.00;;;;;;5090213;28;20077;-62
2022/09/13 12:12:56;;;;;;;3.15;0.70;;;22.30;94.70;;;;;;5091480;28;20378;-63
2022/09/13 12:15:35;;;;;;;4.38;0.80;;;22.20;94.30;;;;;;5085141;28;20075;-62
2022/09/13 12:18:33;;;;;;;3.30;0.60;;;22.00;92.60;;;;;;5087937;28;20039;-63
2022/09/13 12:21:10;;;;;;;4.50;0.60;;;22.10;91.80;;;;;;5079367;28;20043;-63
2022/09/13 12:23:52;;;;;;;3.40;0.63;;;22.10;91.60;;;;;;5086263;28;20040;-63
2022/09/13 12:26:27;;;;;;;6.07;0.80;;;22.20;91.90;;;;;;5089131;28;20028;-62
2022/09/13 12:29:07;;;;;;;3.30;0.80;;;22.20;92.90;;;;;;5090367;28;20040;-62
2022/09/13 12:31:32;;;;;;;3.22;0.63;;;22.20;92.90;;;;;;5082689;28;20031;-62
2022/09/13 12:34:00;;;;;;;4.78;0.88;;;22.20;93.60;;;;;;5081755;28;20047;-62
2022/09/13 12:36:48;;;;;;;2.85;0.70;;;22.30;93.40;;;;;;5086028;28;20055;-62
2022/09/13 12:39:32;;;;;;;2.65;0.40;;;22.40;92.10;;;;;;5085474;28;20040;-62
2022/09/13 12:42:25;;;;;;;3.08;0.50;;;22.50;92.30;;;;;;5089742;28;20040;-61
2022/09/13 12:45:15;;;;;;;2.70;0.70;;;22.70;91.00;;;;;;5091618;28;20052;-62
2022/09/13 12:48:03;;;;;;;3.87;0.80;;;22.80;92.10;;;;;;5087307;28;20044;-62
2022/09/13 12:50:48;;;;;;;4.22;0.52;;;22.80;90.50;;;;;;5077684;28;20036;-61
2022/09/13 12:53:55;;;;;;;4.15;0.80;;;23.20;87.80;;;;;;5088038;28;20444;-62
2022/09/13 12:56:41;;;;;;;7.07;0.70;;;24.00;83.30;;;;;;5058600;28;20107;-61
2022/09/13 12:59:37;;;;;;;1.80;0.70;;;24.80;82.40;;;;;;5089165;28;20115;-61
2022/09/13 13:02:24;;;;;;;2.63;0.50;;;25.30;80.30;;;;;;5076528;28;20051;-61
2022/09/13 13:04:54;;;;;;;3.30;0.80;;;25.60;79.60;;;;;;5090928;28;20050;-61
2022/09/13 13:07:22;;;;;;;1.77;0.40;;;25.40;81.20;;;;;;5079008;28;20393;-62
2022/09/13 13:09:57;;;;;;;3.75;0.60;;;25.10;82.80;;;;;;5091719;28;20046;-61
2022/09/13 13:12:28;;;;;;;2.90;0.60;;;25.10;82.40;;;;;;5087900;28;20036;-61
2022/09/13 13:14:55;;;;;;;4.65;0.60;;;25.10;81.60;;;;;;5086620;28;20562;-61